createdAt,value
2022-08-07T00:00:43.385Z,10.44
2022-08-07T00:02:37.222Z,10.38
2022-08-07T00:02:44.754Z,10.37
2022-08-07T00:03:47.199Z,10.40
2022-08-07T00:04:43.425Z,10.33
2022-08-07T00:05:43.343Z,10.41
2022-08-07T00:06:51.667Z,10.34
2022-08-07T00:07:44.326Z,10.35
2022-08-07T00:08:44.446Z,10.35
2022-08-07T00:09:50.160Z,10.38
2022-08-07T00:10:48.350Z,10.31
2022-08-07T00:11:54.027Z,10.30
2022-08-07T00:12:59.941Z,10.26
2022-08-07T00:13:44.867Z,10.28
2022-08-07T00:14:44.205Z,10.33
2022-08-07T00:15:46.739Z,10.31
2022-08-07T00:16:44.252Z,10.31
2022-08-07T00:17:43.248Z,10.25
2022-08-07T00:18:43.241Z,10.28
2022-08-07T00:20:01.058Z,10.17
2022-08-07T00:20:44.228Z,10.22
2022-08-07T00:21:55.989Z,10.20
2022-08-07T00:22:51.789Z,10.20
2022-08-07T00:23:44.202Z,10.10
2022-08-07T00:24:43.221Z,10.15
2022-08-07T00:25:43.199Z,10.23
2022-08-07T00:26:59.469Z,10.10
2022-08-07T00:27:52.532Z,10.13
2022-08-07T00:28:45.863Z,10.02
2022-08-07T00:29:44.179Z,9.99
2022-08-07T00:30:43.147Z,10.05
2022-08-07T00:31:43.157Z,10.01
2022-08-07T00:32:43.128Z,10.09
2022-08-07T00:33:43.123Z,9.99
2022-08-07T00:34:43.138Z,10.05
2022-08-07T00:35:49.098Z,9.94
2022-08-07T00:36:45.094Z,10.02
2022-08-07T00:37:48.324Z,10.02
2022-08-07T00:38:44.076Z,9.97
2022-08-07T00:39:44.849Z,10.09
2022-08-07T00:40:43.065Z,10.02
2022-08-07T00:41:53.199Z,9.97
2022-08-07T00:42:44.046Z,9.89
2022-08-07T00:44:01.817Z,10.04
2022-08-07T00:44:44.059Z,9.92
2022-08-07T00:45:43.022Z,10.05
2022-08-07T00:46:43.013Z,9.98
2022-08-07T00:48:08.884Z,9.94
2022-08-07T00:48:43.998Z,9.98
2022-08-07T00:50:20.696Z,9.91
2022-08-07T00:50:50.483Z,9.98
2022-08-07T00:51:58.695Z,9.87
2022-08-07T00:52:47.531Z,9.97
2022-08-07T00:53:50.888Z,9.94
2022-08-07T00:54:44.971Z,9.92
2022-08-07T00:56:00.390Z,9.89
2022-08-07T00:56:43.995Z,9.87
2022-08-07T00:57:55.083Z,9.92
2022-08-07T00:58:46.616Z,9.98
2022-08-07T00:59:42.936Z,9.94
2022-08-07T01:00:53.874Z,9.82
2022-08-07T01:01:44.482Z,9.86
2022-08-07T01:02:42.886Z,9.80
2022-08-07T01:03:55.675Z,9.82
2022-08-07T01:04:44.038Z,9.87
2022-08-07T01:05:42.859Z,9.64
2022-08-07T01:06:43.852Z,9.73
2022-08-07T01:07:42.843Z,9.77
2022-08-07T01:08:51.283Z,9.72
2022-08-07T01:10:04.635Z,9.69
2022-08-07T01:10:54.239Z,9.72
2022-08-07T01:12:09.489Z,9.62
2022-08-07T01:12:53.787Z,9.65
2022-08-07T01:13:55.567Z,9.66
2022-08-07T01:14:45.062Z,9.73
2022-08-07T01:16:05.727Z,9.66
2022-08-07T01:16:47.349Z,9.72
2022-08-07T01:17:42.767Z,9.65
2022-08-07T01:18:42.754Z,9.59
2022-08-07T01:19:52.403Z,9.69
2022-08-07T01:20:43.734Z,9.72
2022-08-07T01:21:43.730Z,9.61
2022-08-07T01:22:54.065Z,9.62
2022-08-07T01:23:46.549Z,9.56
2022-08-07T01:24:43.737Z,9.56
2022-08-07T01:25:55.296Z,9.69
2022-08-07T01:26:43.691Z,9.62
2022-08-07T01:27:50.968Z,9.61
2022-08-07T01:28:46.158Z,9.56
2022-08-07T01:29:42.671Z,9.50
2022-08-07T01:30:42.691Z,9.55
2022-08-07T01:31:48.106Z,9.55
2022-08-07T01:32:43.650Z,9.46
2022-08-07T01:33:53.992Z,9.50
2022-08-07T01:34:43.632Z,9.41
2022-08-07T01:35:53.115Z,9.43
2022-08-07T01:36:44.102Z,9.39
2022-08-07T01:37:42.618Z,9.40
2022-08-07T01:38:42.604Z,9.34
2022-08-07T01:39:46.734Z,9.44
2022-08-07T01:40:42.616Z,9.29
2022-08-07T01:42:01.642Z,9.48
2022-08-07T01:42:57.554Z,9.39
2022-08-07T01:43:43.577Z,9.32
2022-08-07T01:44:42.561Z,9.32
2022-08-07T01:45:43.571Z,9.39
2022-08-07T01:46:42.548Z,9.29
2022-08-07T01:48:21.340Z,9.29
2022-08-07T01:48:46.624Z,9.19
2022-08-07T01:49:42.520Z,9.21
2022-08-07T01:50:43.182Z,9.21
2022-08-07T01:52:03.628Z,9.22
2022-08-07T01:52:49.723Z,9.21
2022-08-07T01:54:00.768Z,9.21
2022-08-07T01:54:43.479Z,9.16
2022-08-07T01:55:42.498Z,9.28
2022-08-07T01:56:42.472Z,9.25
2022-08-07T01:58:06.471Z,9.25
2022-08-07T01:58:45.322Z,9.16
2022-08-07T01:59:43.789Z,9.16
2022-08-07T02:00:49.102Z,9.10
2022-08-07T02:01:59.970Z,9.22
2022-08-07T02:03:18.118Z,9.21
2022-08-07T02:03:50.338Z,9.25
2022-08-07T02:04:56.209Z,9.25
2022-08-07T02:05:55.281Z,9.18
2022-08-07T02:06:43.386Z,9.29
2022-08-07T02:07:49.976Z,9.11
2022-08-07T02:08:43.375Z,9.16
2022-08-07T02:09:54.698Z,9.16
2022-08-07T02:10:43.389Z,9.08
2022-08-07T02:12:03.442Z,9.08
2022-08-07T02:12:43.338Z,9.18
2022-08-07T02:13:57.567Z,9.10
2022-08-07T02:14:43.325Z,9.21
2022-08-07T02:15:42.350Z,9.03
2022-08-07T02:16:42.310Z,8.99
2022-08-07T02:17:42.303Z,9.10
2022-08-07T02:18:46.889Z,8.97
2022-08-07T02:20:05.817Z,8.97
2022-08-07T02:20:43.304Z,9.03
2022-08-07T02:21:55.075Z,8.97
2022-08-07T02:22:43.809Z,9.03
2022-08-07T02:23:42.255Z,8.95
2022-08-07T02:24:44.646Z,9.03
2022-08-07T02:26:26.759Z,8.92
2022-08-07T02:26:43.252Z,8.99
2022-08-07T02:27:42.223Z,9.00
2022-08-07T02:28:42.215Z,8.95
2022-08-07T02:29:43.455Z,8.94
2022-08-07T02:30:43.194Z,9.03
2022-08-07T02:31:42.214Z,8.99
2022-08-07T02:33:00.476Z,8.81
2022-08-07T02:34:01.805Z,8.89
2022-08-07T02:34:48.903Z,8.88
2022-08-07T02:36:28.645Z,8.84
2022-08-07T02:36:43.169Z,8.81
2022-08-07T02:37:44.105Z,8.84
2022-08-07T02:38:50.970Z,8.76
2022-08-07T02:40:02.331Z,8.79
2022-08-07T02:40:43.150Z,8.85
2022-08-07T02:41:50.684Z,8.78
2022-08-07T02:42:43.097Z,8.87
2022-08-07T02:43:42.093Z,8.92
2022-08-07T02:44:47.874Z,8.85
2022-08-07T02:45:58.461Z,8.82
2022-08-07T02:46:46.616Z,8.84
2022-08-07T02:47:48.130Z,8.84
2022-08-07T02:48:54.628Z,8.78
2022-08-07T02:49:56.339Z,8.73
2022-08-07T02:50:43.035Z,8.69
2022-08-07T02:51:52.097Z,8.67
2022-08-07T02:52:44.182Z,8.71
2022-08-07T02:53:42.014Z,8.73
2022-08-07T02:54:42.008Z,8.82
2022-08-07T02:56:03.198Z,8.73
2022-08-07T02:56:43.013Z,8.70
2022-08-07T02:57:41.988Z,8.73
2022-08-07T02:58:47.370Z,8.76
2022-08-07T02:59:42.968Z,8.67
2022-08-07T03:00:47.051Z,8.69
2022-08-07T03:01:42.023Z,8.70
2022-08-07T03:02:54.525Z,8.64
2022-08-07T03:03:50.400Z,8.61
2022-08-07T03:04:42.933Z,8.61
2022-08-07T03:05:41.926Z,8.70
2022-08-07T03:06:42.086Z,8.71
2022-08-07T03:08:05.122Z,8.66
2022-08-07T03:08:42.897Z,8.67
2022-08-07T03:09:44.419Z,8.78
2022-08-07T03:10:46.588Z,8.64
2022-08-07T03:11:52.287Z,8.60
2022-08-07T03:12:42.875Z,8.76
2022-08-07T03:13:49.885Z,8.61
2022-08-07T03:14:42.853Z,8.63
2022-08-07T03:15:47.887Z,8.70
2022-08-07T03:16:42.866Z,8.71
2022-08-07T03:17:53.438Z,8.74
2022-08-07T03:18:44.120Z,8.63
2022-08-07T03:19:41.818Z,8.64
2022-08-07T03:20:41.802Z,8.70
2022-08-07T03:21:50.501Z,8.61
2022-08-07T03:22:42.786Z,8.66
2022-08-07T03:24:18.200Z,8.64
2022-08-07T03:24:42.771Z,8.51
2022-08-07T03:25:41.840Z,8.67
2022-08-07T03:26:51.009Z,8.64
2022-08-07T03:27:42.771Z,8.69
2022-08-07T03:28:43.151Z,8.66
2022-08-07T03:29:46.130Z,8.64
2022-08-07T03:30:42.728Z,8.58
2022-08-07T03:31:43.611Z,8.58
2022-08-07T03:32:49.183Z,8.46
2022-08-07T03:33:42.696Z,8.48
2022-08-07T03:34:47.472Z,8.55
2022-08-07T03:35:50.472Z,8.49
2022-08-07T03:36:42.676Z,8.45
2022-08-07T03:37:53.257Z,8.49
2022-08-07T03:38:42.662Z,8.44
2022-08-07T03:39:59.112Z,8.41
2022-08-07T03:40:44.542Z,8.49
2022-08-07T03:41:42.261Z,8.37
2022-08-07T03:42:42.656Z,8.41
2022-08-07T03:43:44.034Z,8.49
2022-08-07T03:44:42.615Z,8.45
2022-08-07T03:45:43.639Z,8.42
2022-08-07T03:47:11.522Z,8.44
2022-08-07T03:47:47.759Z,8.44
2022-08-07T03:48:45.294Z,8.42
2022-08-07T03:49:48.056Z,8.44
2022-08-07T03:50:43.238Z,8.49
2022-08-07T03:51:47.355Z,8.46
2022-08-07T03:52:42.572Z,8.45
2022-08-07T03:54:01.967Z,8.53
2022-08-07T03:54:54.791Z,8.42
2022-08-07T03:55:53.088Z,8.49
2022-08-07T03:56:42.523Z,8.49
2022-08-07T03:59:05.349Z,8.46
2022-08-07T03:59:08.599Z,8.55
2022-08-07T03:59:46.654Z,8.55
2022-08-07T04:00:42.509Z,8.52
2022-08-07T04:01:43.319Z,8.55
2022-08-07T04:02:41.507Z,8.58
2022-08-07T04:03:49.969Z,8.46
2022-08-07T04:04:42.441Z,8.46
2022-08-07T04:05:42.377Z,8.49
2022-08-07T04:06:41.431Z,8.56
2022-08-07T04:07:42.530Z,8.61
2022-08-07T04:08:41.416Z,8.66
2022-08-07T04:09:44.867Z,8.61
2022-08-07T04:10:42.602Z,8.70
2022-08-07T04:12:15.529Z,8.61
2022-08-07T04:12:42.404Z,8.81
2022-08-07T04:14:32.987Z,8.78
2022-08-07T04:14:43.839Z,9.11
2022-08-07T04:15:42.358Z,9.68
2022-08-07T04:16:43.080Z,10.07
2022-08-07T04:18:57.183Z,10.67
2022-08-07T04:18:59.727Z,11.12
2022-08-07T04:19:52.114Z,11.40
2022-08-07T04:20:54.321Z,11.83
2022-08-07T04:21:59.701Z,12.15
2022-08-07T04:22:53.083Z,12.60
2022-08-07T04:23:43.612Z,12.93
2022-08-07T04:24:42.288Z,13.33
2022-08-07T04:25:41.286Z,13.72
2022-08-07T04:26:43.712Z,13.87
2022-08-07T04:27:44.327Z,14.07
2022-08-07T04:28:42.274Z,14.14
2022-08-07T04:29:48.956Z,14.32
2022-08-07T04:30:55.308Z,14.60
2022-08-07T04:32:03.440Z,14.96
2022-08-07T04:32:44.687Z,15.18
2022-08-07T04:33:42.224Z,15.37
2022-08-07T04:34:41.217Z,15.58
2022-08-07T04:35:41.205Z,15.77
2022-08-07T04:36:41.202Z,15.86
2022-08-07T04:38:03.293Z,16.17
2022-08-07T04:38:42.182Z,16.36
2022-08-07T04:39:41.199Z,16.58
2022-08-07T04:40:51.246Z,16.91
2022-08-07T04:41:42.169Z,17.04
2022-08-07T04:42:42.179Z,17.20
2022-08-07T04:44:12.334Z,17.16
2022-08-07T04:44:54.769Z,17.08
2022-08-07T04:45:57.859Z,17.34
2022-08-07T04:46:59.547Z,17.26
2022-08-07T04:48:00.896Z,17.42
2022-08-07T04:48:44.621Z,17.67
2022-08-07T04:49:41.096Z,18.08
2022-08-07T04:50:41.094Z,18.33
2022-08-07T04:51:41.075Z,18.43
2022-08-07T04:52:51.020Z,18.53
2022-08-07T04:54:05.425Z,18.45
2022-08-07T04:54:42.062Z,18.53
2022-08-07T04:58:12.864Z,18.63
2022-08-07T04:58:23.951Z,18.83
2022-08-07T04:58:31.447Z,18.83
2022-08-07T04:59:18.581Z,18.88
2022-08-07T05:00:12.531Z,18.68
2022-08-07T05:00:42.060Z,18.47
2022-08-07T05:01:41.065Z,18.38
2022-08-07T05:02:43.385Z,18.56
2022-08-07T05:04:06.585Z,18.75
2022-08-07T05:04:47.273Z,18.63
2022-08-07T05:05:53.554Z,18.62
2022-08-07T05:06:43.315Z,18.89
2022-08-07T05:07:48.099Z,19.09
2022-08-07T05:08:59.147Z,19.41
2022-08-07T05:09:45.429Z,19.82
2022-08-07T05:10:40.938Z,20.18
2022-08-07T05:11:58.884Z,20.34
2022-08-07T05:12:51.364Z,20.29
2022-08-07T05:14:52.901Z,20.44
2022-08-07T05:14:56.079Z,20.40
2022-08-07T05:15:41.898Z,20.60
2022-08-07T05:16:43.895Z,20.65
2022-08-07T05:17:53.025Z,20.81
2022-08-07T05:18:41.872Z,20.82
2022-08-07T05:19:44.941Z,20.90
2022-08-07T05:20:40.867Z,20.65
2022-08-07T05:22:00.046Z,20.24
2022-08-07T05:22:41.874Z,19.69
2022-08-07T05:23:40.837Z,19.67
2022-08-07T05:24:40.953Z,19.44
2022-08-07T05:26:13.091Z,19.09
2022-08-07T05:26:41.815Z,18.86
2022-08-07T05:28:02.493Z,19.40
2022-08-07T05:28:41.806Z,19.76
2022-08-07T05:29:50.985Z,19.82
2022-08-07T05:30:42.793Z,19.92
2022-08-07T05:31:40.797Z,19.88
2022-08-07T05:32:41.799Z,20.00
2022-08-07T05:33:40.769Z,19.71
2022-08-07T05:34:41.852Z,19.82
2022-08-07T05:35:41.801Z,20.03
2022-08-07T05:36:40.745Z,19.69
2022-08-07T05:37:42.367Z,19.58
2022-08-07T05:38:58.373Z,19.76
2022-08-07T05:40:05.864Z,19.86
2022-08-07T05:40:50.559Z,19.69
2022-08-07T05:42:02.533Z,19.88
2022-08-07T05:42:43.048Z,20.03
2022-08-07T05:43:49.718Z,20.10
2022-08-07T05:44:46.615Z,20.55
2022-08-07T05:45:47.435Z,20.97
2022-08-07T05:46:42.909Z,21.33
2022-08-07T05:48:01.525Z,21.85
2022-08-07T05:48:59.194Z,22.00
2022-08-07T05:49:41.663Z,21.98
2022-08-07T05:50:42.922Z,22.28
2022-08-07T05:51:40.808Z,22.66
2022-08-07T05:52:40.644Z,23.10
2022-08-07T05:54:12.381Z,23.12
2022-08-07T05:54:53.210Z,23.13
2022-08-07T05:56:01.835Z,23.20
2022-08-07T05:56:41.620Z,23.56
2022-08-07T05:57:42.404Z,23.47
2022-08-07T05:58:40.626Z,23.78
2022-08-07T05:59:57.215Z,23.81
2022-08-07T06:00:41.584Z,23.92
2022-08-07T06:01:40.633Z,24.08
2022-08-07T06:02:40.580Z,24.10
2022-08-07T06:03:53.950Z,24.24
2022-08-07T06:04:41.565Z,24.18
2022-08-07T06:05:40.760Z,24.18
2022-08-07T06:06:46.035Z,23.99
2022-08-07T06:08:13.716Z,24.01
2022-08-07T06:08:44.367Z,24.14
2022-08-07T06:10:04.259Z,24.26
2022-08-07T06:10:42.516Z,24.17
2022-08-07T06:11:40.517Z,24.26
2022-08-07T06:12:40.511Z,24.39
2022-08-07T06:14:12.211Z,24.57
2022-08-07T06:14:41.497Z,24.77
2022-08-07T06:15:42.726Z,24.98
2022-08-07T06:16:40.485Z,25.10
2022-08-07T06:17:41.339Z,25.10
2022-08-07T06:18:42.947Z,25.07
2022-08-07T06:19:49.927Z,24.86
2022-08-07T06:20:50.404Z,24.86
2022-08-07T06:22:14.587Z,24.50
2022-08-07T06:22:41.441Z,24.54
2022-08-07T06:24:37.268Z,25.04
2022-08-07T06:24:53.235Z,25.35
2022-08-07T06:25:41.421Z,25.14
2022-08-07T06:26:41.416Z,25.38
2022-08-07T06:28:00.098Z,25.66
2022-08-07T06:28:41.432Z,25.50
2022-08-07T06:29:40.395Z,25.50
2022-08-07T06:30:45.416Z,25.99
2022-08-07T06:31:50.457Z,26.13
2022-08-07T06:32:41.375Z,26.02
2022-08-07T06:33:40.374Z,26.06
2022-08-07T06:34:40.641Z,26.34
2022-08-07T06:35:47.504Z,26.07
2022-08-07T06:36:41.349Z,26.36
2022-08-07T06:37:44.435Z,26.66
2022-08-07T06:38:58.496Z,26.96
2022-08-07T06:40:13.703Z,26.66
2022-08-07T06:40:45.744Z,26.58
2022-08-07T06:42:01.753Z,26.48
2022-08-07T06:42:41.307Z,26.45
2022-08-07T06:43:46.195Z,26.74
2022-08-07T06:44:41.330Z,26.83
2022-08-07T06:45:40.298Z,26.89
2022-08-07T06:46:40.293Z,27.65
2022-08-07T06:47:48.017Z,27.39
2022-08-07T06:48:41.844Z,27.70
2022-08-07T06:49:51.228Z,27.65
2022-08-07T06:50:43.303Z,27.83
2022-08-07T06:51:49.348Z,28.08
2022-08-07T06:52:41.253Z,28.07
2022-08-07T06:55:27.948Z,28.20
2022-08-07T06:55:31.199Z,28.41
2022-08-07T06:55:48.068Z,28.48
2022-08-07T06:56:49.721Z,28.69
2022-08-07T06:57:48.320Z,28.93
2022-08-07T06:58:41.221Z,29.07
2022-08-07T07:00:12.929Z,28.89
2022-08-07T07:00:42.317Z,29.17
2022-08-07T07:01:44.085Z,29.42
2022-08-07T07:02:54.591Z,29.59
2022-08-07T07:03:48.072Z,30.08
2022-08-07T07:04:43.571Z,29.93
2022-08-07T07:06:03.343Z,30.23
2022-08-07T07:07:00.447Z,30.44
2022-08-07T07:08:00.215Z,30.53
2022-08-07T07:08:46.753Z,29.66
2022-08-07T07:09:41.181Z,28.14
2022-08-07T07:10:47.541Z,27.07
2022-08-07T07:12:09.095Z,26.88
2022-08-07T07:12:41.744Z,26.43
2022-08-07T07:13:57.966Z,25.63
2022-08-07T07:14:41.178Z,25.99
2022-08-07T07:15:40.122Z,26.51
2022-08-07T07:16:49.653Z,25.88
2022-08-07T07:17:45.383Z,25.91
2022-08-07T07:18:48.110Z,25.07
2022-08-07T07:19:56.078Z,24.30
2022-08-07T07:20:41.089Z,24.40
2022-08-07T07:22:05.454Z,24.85
2022-08-07T07:24:08.870Z,25.98
2022-08-07T07:24:10.028Z,25.14
2022-08-07T07:24:42.936Z,26.44
2022-08-07T07:26:32.056Z,26.22
2022-08-07T07:26:41.058Z,25.41
2022-08-07T07:27:56.042Z,25.16
2022-08-07T07:28:48.333Z,24.65
2022-08-07T07:30:08.606Z,24.89
2022-08-07T07:30:42.044Z,24.53
2022-08-07T07:31:44.455Z,24.96
2022-08-07T07:32:40.012Z,24.73
2022-08-07T07:33:40.006Z,24.98
2022-08-07T07:34:40.022Z,24.99
2022-08-07T07:35:50.691Z,25.07
2022-08-07T07:36:40.990Z,25.46
2022-08-07T07:37:49.701Z,25.51
2022-08-07T07:38:40.974Z,25.22
2022-08-07T07:39:52.314Z,24.78
2022-08-07T07:40:40.965Z,24.32
2022-08-07T07:42:02.002Z,24.99
2022-08-07T07:42:40.948Z,25.41
2022-08-07T07:44:13.608Z,25.16
2022-08-07T07:44:40.965Z,24.80
2022-08-07T07:46:37.413Z,25.08
2022-08-07T07:46:55.231Z,25.38
2022-08-07T07:47:51.663Z,26.15
2022-08-07T07:48:40.916Z,26.23
2022-08-07T07:50:33.946Z,26.48
2022-08-07T07:50:40.900Z,26.05
2022-08-07T07:51:58.199Z,25.90
2022-08-07T07:52:40.888Z,25.66
2022-08-07T07:53:51.437Z,25.32
2022-08-07T07:54:44.117Z,25.03
2022-08-07T07:55:45.775Z,25.23
2022-08-07T07:56:40.864Z,25.43
2022-08-07T07:57:52.459Z,25.11
2022-08-07T07:58:41.119Z,24.88
2022-08-07T07:59:52.062Z,24.93
2022-08-07T08:00:40.837Z,25.41
2022-08-07T08:02:01.929Z,25.48
2022-08-07T08:02:40.825Z,25.22
2022-08-07T08:04:06.343Z,25.13
2022-08-07T08:04:40.871Z,24.95
2022-08-07T08:05:51.134Z,25.08
2022-08-07T08:06:40.797Z,24.93
2022-08-07T08:07:42.143Z,25.51
2022-08-07T08:08:41.965Z,25.95
2022-08-07T08:09:52.369Z,25.38
2022-08-07T08:10:40.783Z,25.36
2022-08-07T08:11:59.230Z,25.72
2022-08-07T08:12:59.091Z,26.13
2022-08-07T08:13:53.352Z,26.21
2022-08-07T08:14:40.770Z,26.47
2022-08-07T08:16:40.735Z,25.53
2022-08-07T08:18:17.504Z,25.41
2022-08-07T08:18:36.321Z,26.18
2022-08-07T08:18:40.720Z,25.72
2022-08-07T08:20:17.708Z,25.46
2022-08-07T08:20:40.704Z,25.08
2022-08-07T08:22:00.679Z,25.14
2022-08-07T08:22:54.320Z,25.51
2022-08-07T08:23:40.686Z,25.25
2022-08-07T08:24:44.900Z,25.90
2022-08-07T08:25:42.491Z,25.81
2022-08-07T08:26:40.665Z,25.69
2022-08-07T08:27:39.662Z,25.62
2022-08-07T08:28:44.948Z,25.53
2022-08-07T08:29:54.282Z,25.51
2022-08-07T08:30:51.140Z,25.87
2022-08-07T08:32:18.133Z,26.15
2022-08-07T08:32:41.329Z,26.09
2022-08-07T08:33:39.625Z,25.43
2022-08-07T08:34:40.639Z,25.17
2022-08-07T08:35:47.245Z,25.08
2022-08-07T08:36:40.601Z,25.06
2022-08-07T08:38:01.039Z,24.96
2022-08-07T08:38:41.300Z,24.95
2022-08-07T08:39:58.155Z,25.06
2022-08-07T08:40:40.582Z,24.96
2022-08-07T08:41:58.314Z,24.88
2022-08-07T08:42:40.561Z,24.60
2022-08-07T08:43:42.195Z,24.95
2022-08-07T08:44:44.687Z,25.41
2022-08-07T08:45:59.059Z,25.21
2022-08-07T08:46:40.536Z,25.22
2022-08-07T08:47:47.365Z,25.22
2022-08-07T08:48:40.519Z,24.95
2022-08-07T08:49:46.892Z,25.18
2022-08-07T08:50:40.506Z,25.18
2022-08-07T08:51:49.726Z,25.36
2022-08-07T08:52:40.749Z,25.21
2022-08-07T08:53:40.487Z,25.41
2022-08-07T08:54:39.479Z,25.95
2022-08-07T08:55:54.993Z,25.96
2022-08-07T08:56:43.580Z,25.85
2022-08-07T08:57:40.485Z,25.54
2022-08-07T08:58:39.454Z,25.48
2022-08-07T08:59:42.345Z,25.73
2022-08-07T09:00:42.470Z,25.77
2022-08-07T09:01:43.740Z,25.54
2022-08-07T09:02:40.599Z,25.54
2022-08-07T09:03:48.074Z,25.16
2022-08-07T09:04:40.435Z,24.98
2022-08-07T09:05:39.406Z,24.88
2022-08-07T09:06:40.245Z,25.14
2022-08-07T09:07:46.400Z,25.36
2022-08-07T09:08:40.383Z,25.32
2022-08-07T09:09:39.401Z,25.17
2022-08-07T09:10:44.270Z,25.44
2022-08-07T09:11:51.188Z,25.65
2022-08-07T09:12:40.353Z,25.43
2022-08-07T09:13:39.351Z,25.29
2022-08-07T09:14:39.363Z,25.72
2022-08-07T09:16:21.523Z,26.22
2022-08-07T09:16:40.324Z,26.51
2022-08-07T09:17:59.273Z,26.00
2022-08-07T09:18:40.312Z,25.90
2022-08-07T09:19:53.118Z,25.65
2022-08-07T09:20:40.295Z,25.80
2022-08-07T09:21:58.141Z,25.68
2022-08-07T09:24:32.440Z,25.63
2022-08-07T09:24:33.477Z,25.93
2022-08-07T09:24:58.594Z,26.28
2022-08-07T09:25:40.257Z,26.19
2022-08-07T09:26:39.253Z,26.51
2022-08-07T09:28:00.644Z,26.55
2022-08-07T09:30:01.099Z,26.66
2022-08-07T09:30:06.239Z,27.21
2022-08-07T09:30:40.341Z,27.85
2022-08-07T09:31:40.216Z,28.45
2022-08-07T09:32:40.216Z,28.29
2022-08-07T09:33:52.714Z,26.83
2022-08-07T09:34:40.218Z,25.91
2022-08-07T09:36:03.238Z,25.23
2022-08-07T09:36:43.092Z,25.22
2022-08-07T09:37:54.098Z,25.44
2022-08-07T09:38:40.168Z,25.31
2022-08-07T09:39:53.867Z,25.53
2022-08-07T09:40:40.160Z,25.98
2022-08-07T09:41:43.125Z,25.68
2022-08-07T09:42:40.139Z,25.13
2022-08-07T09:44:03.580Z,24.80
2022-08-07T09:47:25.529Z,25.26
2022-08-07T09:47:25.742Z,25.80
2022-08-07T09:47:52.329Z,25.99
2022-08-07T09:47:58.992Z,25.83
2022-08-07T09:48:56.080Z,25.68
2022-08-07T09:50:03.007Z,25.65
2022-08-07T09:50:40.097Z,25.96
2022-08-07T09:52:15.196Z,26.06
2022-08-07T09:52:40.085Z,25.58
2022-08-07T09:53:41.226Z,24.95
2022-08-07T09:54:40.091Z,24.77
2022-08-07T09:56:03.933Z,24.26
2022-08-07T09:56:41.864Z,23.87
2022-08-07T09:57:46.745Z,24.02
2022-08-07T09:58:41.541Z,23.68
2022-08-07T09:59:46.323Z,23.71
2022-08-07T10:00:40.006Z,23.80
2022-08-07T10:01:51.018Z,23.69
2022-08-07T10:02:39.987Z,23.51
2022-08-07T10:04:05.724Z,23.32
2022-08-07T10:04:47.739Z,23.31
2022-08-07T10:06:00.636Z,23.56
2022-08-07T10:06:39.964Z,23.63
2022-08-07T10:07:53.119Z,23.92
2022-08-07T10:08:39.945Z,23.55
2022-08-07T10:09:59.384Z,23.63
2022-08-07T10:11:59.494Z,23.68
2022-08-07T10:12:01.296Z,23.71
2022-08-07T10:12:39.971Z,23.84
2022-08-07T10:14:01.378Z,23.65
2022-08-07T10:14:39.920Z,23.76
2022-08-07T10:15:44.343Z,24.01
2022-08-07T10:16:39.887Z,24.14
2022-08-07T10:18:00.940Z,24.20
2022-08-07T10:18:39.863Z,24.08
2022-08-07T10:19:38.881Z,24.08
2022-08-07T10:20:38.846Z,23.96
2022-08-07T10:22:14.559Z,24.16
2022-08-07T10:22:43.186Z,24.20
2022-08-07T10:24:05.156Z,24.08
2022-08-07T10:24:39.953Z,23.92
2022-08-07T10:25:42.786Z,23.83
2022-08-07T10:26:38.806Z,23.95
2022-08-07T10:27:46.305Z,24.03
2022-08-07T10:28:39.792Z,24.23
2022-08-07T10:29:45.492Z,24.43
2022-08-07T10:30:40.775Z,24.18
2022-08-07T10:31:39.292Z,23.99
2022-08-07T10:32:52.956Z,23.98
2022-08-07T10:34:14.116Z,24.13
2022-08-07T10:34:39.786Z,24.01
2022-08-07T10:35:53.493Z,23.93
2022-08-07T10:36:39.733Z,23.98
2022-08-07T10:37:48.381Z,23.93
2022-08-07T10:38:48.490Z,23.86
2022-08-07T10:39:42.094Z,23.99
2022-08-07T10:40:39.693Z,24.18
2022-08-07T10:41:51.537Z,24.35
2022-08-07T10:42:39.680Z,24.26
2022-08-07T10:43:38.673Z,24.08
2022-08-07T10:44:39.170Z,24.10
2022-08-07T10:45:57.713Z,23.83
2022-08-07T10:46:39.647Z,23.86
2022-08-07T10:47:52.854Z,23.83
2022-08-07T10:48:39.629Z,24.13
2022-08-07T10:49:49.622Z,24.35
2022-08-07T10:50:39.636Z,24.36
2022-08-07T10:52:01.728Z,24.14
2022-08-07T10:52:40.186Z,24.29
2022-08-07T10:53:44.147Z,24.43
2022-08-07T10:54:39.613Z,24.39
2022-08-07T10:55:38.990Z,24.58
2022-08-07T10:56:38.567Z,24.42
2022-08-07T10:57:38.761Z,24.30
2022-08-07T10:58:40.569Z,24.51
2022-08-07T10:59:38.545Z,24.48
2022-08-07T11:00:43.335Z,24.76
2022-08-07T11:01:52.027Z,24.95
2022-08-07T11:02:40.077Z,24.92
2022-08-07T11:03:54.932Z,24.89
2022-08-07T11:04:39.566Z,24.89
2022-08-07T11:05:49.245Z,24.78
2022-08-07T11:06:39.485Z,24.84
2022-08-07T11:07:59.150Z,24.91
2022-08-07T11:08:39.472Z,24.81
2022-08-07T11:10:07.390Z,24.73
2022-08-07T11:10:39.485Z,24.33
2022-08-07T11:11:38.456Z,24.33
2022-08-07T11:12:38.443Z,24.43
2022-08-07T11:14:42.102Z,24.53
2022-08-07T11:14:46.298Z,24.81
2022-08-07T11:15:39.436Z,25.07
2022-08-07T11:16:38.415Z,25.36
2022-08-07T11:17:43.201Z,25.36
2022-08-07T11:18:39.405Z,25.29
2022-08-07T11:19:38.415Z,25.36
2022-08-07T11:20:38.409Z,25.44
2022-08-07T11:21:40.902Z,25.63
2022-08-07T11:22:45.781Z,25.75
2022-08-07T11:23:40.363Z,25.91
2022-08-07T11:24:38.355Z,25.84
2022-08-07T11:25:47.794Z,25.90
2022-08-07T11:26:43.453Z,25.96
2022-08-07T11:28:03.085Z,25.98
2022-08-07T11:28:39.325Z,26.22
2022-08-07T11:29:42.214Z,26.44
2022-08-07T11:30:41.816Z,26.53
2022-08-07T11:31:38.307Z,26.41
2022-08-07T11:32:40.432Z,25.96
2022-08-07T11:33:59.097Z,25.70
2022-08-07T11:34:40.887Z,25.66
2022-08-07T11:35:59.720Z,25.36
2022-08-07T11:36:39.274Z,25.14
2022-08-07T11:37:58.182Z,25.03
2022-08-07T11:38:40.007Z,24.99
2022-08-07T11:39:59.024Z,24.98
2022-08-07T11:40:39.430Z,25.17
2022-08-07T11:42:00.199Z,25.29
2022-08-07T11:42:39.418Z,25.07
2022-08-07T11:43:54.302Z,25.10
2022-08-07T11:44:39.207Z,25.32
2022-08-07T11:45:40.668Z,25.48
2022-08-07T11:46:39.189Z,25.70
2022-08-07T11:47:39.171Z,25.95
2022-08-07T11:48:39.171Z,26.22
2022-08-07T11:50:18.848Z,26.55
2022-08-07T11:50:44.480Z,26.83
2022-08-07T11:51:41.383Z,27.15
2022-08-07T11:52:39.144Z,27.33
2022-08-07T11:53:38.137Z,27.59
2022-08-07T11:54:39.128Z,27.52
2022-08-07T11:56:24.841Z,27.64
2022-08-07T11:56:39.112Z,27.71
2022-08-07T11:57:59.360Z,27.73
2022-08-07T11:58:39.098Z,27.51
2022-08-07T12:00:10.172Z,27.36
2022-08-07T12:00:39.107Z,27.59
2022-08-07T12:01:59.927Z,27.55
2022-08-07T12:02:39.090Z,27.26
2022-08-07T12:03:41.783Z,26.75
2022-08-07T12:04:39.048Z,26.48
2022-08-07T12:05:41.228Z,26.05
2022-08-07T12:06:51.700Z,25.99
2022-08-07T12:07:40.027Z,25.78
2022-08-07T12:08:38.021Z,25.68
2022-08-07T12:09:38.020Z,25.47
2022-08-07T12:10:38.031Z,25.36
2022-08-07T12:11:43.244Z,25.68
2022-08-07T12:12:38.985Z,25.51
2022-08-07T12:13:40.970Z,25.46
2022-08-07T12:14:39.973Z,25.66
2022-08-07T12:16:05.897Z,25.70
2022-08-07T12:16:38.962Z,25.40
2022-08-07T12:17:38.192Z,25.25
2022-08-07T12:18:37.951Z,25.43
2022-08-07T12:19:56.713Z,25.38
2022-08-07T12:20:38.964Z,25.60
2022-08-07T12:22:38.120Z,25.83
2022-08-07T12:22:56.496Z,26.00
2022-08-07T12:24:07.449Z,26.33
2022-08-07T12:24:40.189Z,26.25
2022-08-07T12:26:22.028Z,26.43
2022-08-07T12:26:41.977Z,26.45
2022-08-07T12:28:08.589Z,26.31
2022-08-07T12:28:38.867Z,26.34
2022-08-07T12:29:40.249Z,26.60
2022-08-07T12:30:37.873Z,26.62
2022-08-07T12:32:01.627Z,26.47
2022-08-07T12:32:38.896Z,26.19
2022-08-07T12:34:01.461Z,25.84
2022-08-07T12:34:38.827Z,25.65
2022-08-07T12:35:37.839Z,25.68
2022-08-07T12:36:37.809Z,25.78
2022-08-07T12:38:09.542Z,25.65
2022-08-07T12:38:47.097Z,25.51
2022-08-07T12:39:42.602Z,25.59
2022-08-07T12:40:47.492Z,25.62
2022-08-07T12:41:51.604Z,25.58
2022-08-07T12:42:38.758Z,25.65
2022-08-07T12:44:02.573Z,25.65
2022-08-07T12:44:38.747Z,25.40
2022-08-07T12:45:37.763Z,25.47
2022-08-07T12:46:37.730Z,25.48
2022-08-07T12:47:39.726Z,25.70
2022-08-07T12:48:52.081Z,25.70
2022-08-07T12:49:48.892Z,25.53
2022-08-07T12:50:49.400Z,25.58
2022-08-07T12:52:12.400Z,25.68
2022-08-07T12:52:38.686Z,25.58
2022-08-07T12:54:02.861Z,25.81
2022-08-07T12:54:41.247Z,25.95
2022-08-07T12:55:40.597Z,26.09
2022-08-07T12:56:37.654Z,26.02
2022-08-07T12:57:38.905Z,26.38
2022-08-07T12:58:39.604Z,26.59
2022-08-07T12:59:54.819Z,26.47